createdAt,value
2017-12-03T00:00:06.059Z,101812
2017-12-03T00:02:36.727Z,101808
2017-12-03T00:05:06.236Z,101805
2017-12-03T00:07:35.688Z,101802
2017-12-03T00:10:05.854Z,101791
2017-12-03T00:12:35.424Z,101791
2017-12-03T00:15:04.822Z,101793
2017-12-03T00:17:34.388Z,101786
2017-12-03T00:20:04.615Z,101786
2017-12-03T00:22:34.247Z,101785
2017-12-03T00:25:04.709Z,101778
2017-12-03T00:27:33.821Z,101769
2017-12-03T00:30:02.949Z,101766
2017-12-03T00:32:33.567Z,101763
2017-12-03T00:35:02.681Z,101761
2017-12-03T00:37:31.795Z,101763
2017-12-03T00:40:01.978Z,101755
2017-12-03T00:42:31.127Z,101761
2017-12-03T00:45:00.289Z,101754
2017-12-03T00:47:29.547Z,101759
2017-12-03T00:49:58.642Z,101756
2017-12-03T00:52:27.818Z,101753
2017-12-03T00:54:56.964Z,101756
2017-12-03T00:57:26.089Z,101747
2017-12-03T00:59:55.541Z,101743
2017-12-03T01:02:25.679Z,101740
2017-12-03T01:04:55.549Z,101733
2017-12-03T01:07:24.695Z,101727
2017-12-03T01:09:54.887Z,101725
2017-12-03T01:12:24.004Z,101725
2017-12-03T01:14:53.190Z,101716
2017-12-03T01:17:23.207Z,101717
2017-12-03T01:19:52.385Z,101713
2017-12-03T01:22:21.479Z,101711
2017-12-03T01:24:50.776Z,101711
2017-12-03T01:27:19.917Z,101715
2017-12-03T01:29:49.050Z,101717
2017-12-03T01:32:19.422Z,101711
2017-12-03T01:34:48.534Z,101706
2017-12-03T01:37:17.725Z,101703
2017-12-03T01:39:47.203Z,101702
2017-12-03T01:42:16.503Z,101699
2017-12-03T01:44:46.224Z,101699
2017-12-03T01:47:15.489Z,101691
2017-12-03T01:49:44.747Z,101692
2017-12-03T01:52:14.725Z,101692
2017-12-03T01:54:43.897Z,101691
2017-12-03T01:57:13.061Z,101687
2017-12-03T01:59:42.270Z,101688
2017-12-03T02:02:11.526Z,101688
2017-12-03T02:04:40.644Z,101689
2017-12-03T02:07:09.835Z,101684
2017-12-03T02:09:39.084Z,101675
2017-12-03T02:12:08.945Z,101673
2017-12-03T02:14:38.151Z,101671
2017-12-03T02:17:07.319Z,101676
2017-12-03T02:19:36.571Z,101672
2017-12-03T02:22:05.718Z,101670
2017-12-03T02:24:35.465Z,101672
2017-12-03T02:27:04.640Z,101662
2017-12-03T02:29:33.767Z,101656
2017-12-03T02:32:03.248Z,101665
2017-12-03T02:34:32.334Z,101665
2017-12-03T02:37:01.457Z,101661
2017-12-03T02:39:32.872Z,101654
2017-12-03T02:42:01.989Z,101654
2017-12-03T02:44:31.086Z,101654
2017-12-03T02:47:01.115Z,101646
2017-12-03T02:49:30.255Z,101641
2017-12-03T02:51:59.396Z,101636
2017-12-03T02:54:29.223Z,101628
2017-12-03T02:56:58.311Z,101624
2017-12-03T02:59:28.170Z,101629
2017-12-03T03:01:58.127Z,101624
2017-12-03T03:04:27.193Z,101621
2017-12-03T03:06:56.274Z,101616
2017-12-03T03:09:26.295Z,101612
2017-12-03T03:11:55.386Z,101607
2017-12-03T03:14:24.523Z,101607
2017-12-03T03:16:54.540Z,101597
2017-12-03T03:19:23.672Z,101595
2017-12-03T03:21:52.784Z,101592
2017-12-03T03:24:23.465Z,101586
2017-12-03T03:26:52.611Z,101598
2017-12-03T03:29:21.702Z,101593
2017-12-03T03:31:51.522Z,101594
2017-12-03T03:34:20.606Z,101584
2017-12-03T03:36:49.762Z,101589
2017-12-03T03:39:18.961Z,101591
2017-12-03T03:41:48.068Z,101582
2017-12-03T03:44:17.288Z,101579
2017-12-03T03:46:46.684Z,101579
2017-12-03T03:49:15.814Z,101577
2017-12-03T03:51:44.984Z,101580
2017-12-03T03:54:14.459Z,101579
2017-12-03T03:56:43.729Z,101579
2017-12-03T03:59:12.925Z,101575
2017-12-03T04:01:43.102Z,101574
2017-12-03T04:04:12.376Z,101568
2017-12-03T04:06:41.509Z,101565
2017-12-03T04:09:10.699Z,101566
2017-12-03T04:11:39.888Z,101564
2017-12-03T04:14:09.036Z,101552
2017-12-03T04:16:38.259Z,101547
2017-12-03T04:19:07.467Z,101542
2017-12-03T04:21:36.562Z,101546
2017-12-03T04:24:07.221Z,101545
2017-12-03T04:26:37.849Z,101541
2017-12-03T04:29:06.997Z,101536
2017-12-03T04:31:37.997Z,101540
2017-12-03T04:34:07.087Z,101536
2017-12-03T04:36:36.994Z,101535
2017-12-03T04:39:06.595Z,101532
2017-12-03T04:41:35.858Z,101530
2017-12-03T04:44:05.177Z,101531
2017-12-03T04:46:35.219Z,101524
2017-12-03T04:49:04.364Z,101518
2017-12-03T04:51:33.490Z,101522
2017-12-03T04:54:02.620Z,101522
2017-12-03T04:56:31.755Z,101516
2017-12-03T04:59:00.913Z,101516
2017-12-03T05:01:30.396Z,101518
2017-12-03T05:03:59.560Z,101513
2017-12-03T05:06:29.505Z,101510
2017-12-03T05:08:58.687Z,101515
2017-12-03T05:11:27.822Z,101509
2017-12-03T05:13:57.962Z,101505
2017-12-03T05:16:27.730Z,101505
2017-12-03T05:18:56.838Z,101496
2017-12-03T05:21:25.999Z,101500
2017-12-03T05:23:55.150Z,101497
2017-12-03T05:26:24.290Z,101501
2017-12-03T05:28:53.413Z,101501
2017-12-03T05:31:22.648Z,101500
2017-12-03T05:33:52.650Z,101498
2017-12-03T05:36:22.562Z,101490
2017-12-03T05:38:51.746Z,101491
2017-12-03T05:41:20.913Z,101492
2017-12-03T05:43:50.862Z,101486
2017-12-03T05:46:20.059Z,101475
2017-12-03T05:48:49.250Z,101478
2017-12-03T05:51:19.238Z,101467
2017-12-03T05:53:48.492Z,101458
2017-12-03T05:56:17.743Z,101461
2017-12-03T05:58:46.939Z,101464
2017-12-03T06:01:16.196Z,101455
2017-12-03T06:03:46.119Z,101465
2017-12-03T06:06:15.434Z,101455
2017-12-03T06:08:44.723Z,101451
2017-12-03T06:11:13.903Z,101454
2017-12-03T06:13:43.931Z,101452
2017-12-03T06:16:15.016Z,101448
2017-12-03T06:18:44.246Z,101439
2017-12-03T06:21:14.272Z,101437
2017-12-03T06:23:44.030Z,101440
2017-12-03T06:26:13.309Z,101430
2017-12-03T06:28:42.640Z,101427
2017-12-03T06:31:13.760Z,101436
2017-12-03T06:33:43.004Z,101434
2017-12-03T06:36:12.282Z,101428
2017-12-03T06:38:42.487Z,101428
2017-12-03T06:41:12.706Z,101426
2017-12-03T06:43:42.920Z,101422
2017-12-03T06:46:14.989Z,101419
2017-12-03T06:48:44.403Z,101423
2017-12-03T06:51:13.840Z,101417
2017-12-03T06:53:44.119Z,101418
2017-12-03T06:56:13.463Z,101415
2017-12-03T06:58:42.757Z,101415
2017-12-03T07:01:12.113Z,101415
2017-12-03T07:03:42.272Z,101411
2017-12-03T07:06:12.412Z,101413
2017-12-03T07:08:41.675Z,101407
2017-12-03T07:11:10.907Z,101411
2017-12-03T07:13:40.174Z,101405
2017-12-03T07:16:09.331Z,101408
2017-12-03T07:18:38.526Z,101413
2017-12-03T07:21:09.507Z,101412
2017-12-03T07:23:39.479Z,101414
2017-12-03T07:26:08.780Z,101415
2017-12-03T07:28:38.085Z,101415
2017-12-03T07:31:08.821Z,101419
2017-12-03T07:33:39.991Z,101420
2017-12-03T07:36:09.216Z,101420
2017-12-03T07:38:38.382Z,101424
2017-12-03T07:41:07.572Z,101435
2017-12-03T07:43:36.721Z,101430
2017-12-03T07:46:05.854Z,101441
2017-12-03T07:48:35.404Z,101444
2017-12-03T07:51:04.553Z,101438
2017-12-03T07:53:34.441Z,101441
2017-12-03T07:56:04.482Z,101447
2017-12-03T07:58:33.661Z,101441
2017-12-03T08:01:02.828Z,101426
2017-12-03T08:03:32.765Z,101423
2017-12-03T08:06:02.673Z,101423
2017-12-03T08:08:31.839Z,101430
2017-12-03T08:11:01.025Z,101428
2017-12-03T08:13:30.868Z,101416
2017-12-03T08:16:00.062Z,101413
2017-12-03T08:18:29.540Z,101417
2017-12-03T08:20:59.475Z,101424
2017-12-03T08:23:28.622Z,101419
2017-12-03T08:25:58.523Z,101422
2017-12-03T08:28:27.710Z,101417
2017-12-03T08:30:56.879Z,101417
2017-12-03T08:33:26.083Z,101417
2017-12-03T08:35:55.217Z,101420
2017-12-03T08:38:24.415Z,101418
2017-12-03T08:40:53.617Z,101414
2017-12-03T08:43:23.227Z,101415
2017-12-03T08:45:52.419Z,101416
2017-12-03T08:48:22.286Z,101410
2017-12-03T08:50:51.555Z,101407
2017-12-03T08:53:20.886Z,101405
2017-12-03T08:55:50.340Z,101406
2017-12-03T08:58:19.830Z,101408
2017-12-03T09:00:49.202Z,101409
2017-12-03T09:03:18.479Z,101413
2017-12-03T09:05:48.631Z,101409
2017-12-03T09:08:17.928Z,101414
2017-12-03T09:10:47.708Z,101416
2017-12-03T09:13:16.991Z,101415
2017-12-03T09:15:46.190Z,101416
2017-12-03T09:18:15.555Z,101422
2017-12-03T09:20:44.828Z,101424
2017-12-03T09:23:14.069Z,101419
2017-12-03T09:25:43.682Z,101413
2017-12-03T09:28:14.600Z,101418
2017-12-03T09:30:43.871Z,101418
2017-12-03T09:33:13.173Z,101420
2017-12-03T09:35:42.423Z,101419
2017-12-03T09:38:11.671Z,101423
2017-12-03T09:40:41.265Z,101421
2017-12-03T09:43:11.247Z,101413
2017-12-03T09:45:40.482Z,101409
2017-12-03T09:48:10.243Z,101404
2017-12-03T09:50:39.350Z,101407
2017-12-03T09:53:08.506Z,101403
2017-12-03T09:55:37.680Z,101402
2017-12-03T09:58:07.945Z,101403
2017-12-03T10:00:37.087Z,101408
2017-12-03T10:03:06.611Z,101403
2017-12-03T10:05:35.803Z,101404
2017-12-03T10:08:04.904Z,101406
2017-12-03T10:10:34.798Z,101403
2017-12-03T10:13:04.869Z,101404
2017-12-03T10:15:34.016Z,101400
2017-12-03T10:18:03.157Z,101395
2017-12-03T10:20:32.383Z,101398
2017-12-03T10:23:03.131Z,101396
2017-12-03T10:25:33.267Z,101397
2017-12-03T10:28:03.198Z,101394
2017-12-03T10:30:34.155Z,101394
2017-12-03T10:33:03.384Z,101395
2017-12-03T10:35:32.538Z,101396
2017-12-03T10:38:22.579Z,101397
2017-12-03T10:40:52.586Z,101400
2017-12-03T10:43:22.669Z,101393
2017-12-03T10:45:52.399Z,101393
2017-12-03T10:48:21.613Z,101387
2017-12-03T10:50:50.767Z,101386
2017-12-03T10:53:20.499Z,101387
2017-12-03T10:55:50.380Z,101387
2017-12-03T10:58:19.613Z,101390
2017-12-03T11:00:50.238Z,101392
2017-12-03T11:03:20.255Z,101391
2017-12-03T11:05:50.751Z,101391
2017-12-03T11:08:20.560Z,101393
2017-12-03T11:10:50.292Z,101389
2017-12-03T11:13:19.432Z,101390
2017-12-03T11:15:48.735Z,101397
2017-12-03T11:18:17.908Z,101390
2017-12-03T11:20:47.917Z,101383
2017-12-03T11:23:17.959Z,101379
2017-12-03T11:25:47.982Z,101380
2017-12-03T11:28:17.157Z,101380
2017-12-03T11:30:47.136Z,101383
2017-12-03T11:33:16.257Z,101381
2017-12-03T11:35:45.801Z,101384
2017-12-03T11:38:15.863Z,101378
2017-12-03T11:40:45.012Z,101380
2017-12-03T11:43:14.592Z,101377
2017-12-03T11:45:43.822Z,101384
2017-12-03T11:48:13.324Z,101377
2017-12-03T11:50:42.619Z,101377
2017-12-03T11:53:11.818Z,101379
2017-12-03T11:55:40.950Z,101373
2017-12-03T11:58:10.131Z,101369
2017-12-03T12:00:41.354Z,101365
2017-12-03T12:03:10.512Z,101365
2017-12-03T12:05:39.600Z,101365
2017-12-03T12:08:10.787Z,101366
2017-12-03T12:10:39.939Z,101361
2017-12-03T12:13:09.080Z,101356
2017-12-03T12:15:39.399Z,101351
2017-12-03T12:18:08.500Z,101350
2017-12-03T12:20:37.613Z,101347
2017-12-03T12:23:06.757Z,101344
2017-12-03T12:25:35.894Z,101347
2017-12-03T12:28:05.856Z,101338
2017-12-03T12:30:35.050Z,101336
2017-12-03T12:33:04.140Z,101332
2017-12-03T12:35:33.295Z,101329
2017-12-03T12:38:02.529Z,101323
2017-12-03T12:40:31.681Z,101329
2017-12-03T12:43:00.787Z,101323
2017-12-03T12:45:29.943Z,101327
2017-12-03T12:47:59.134Z,101331
2017-12-03T12:50:28.290Z,101343
2017-12-03T12:52:57.967Z,101330
2017-12-03T12:55:29.236Z,101328
2017-12-03T12:57:58.618Z,101329
2017-12-03T13:00:27.690Z,101326
2017-12-03T13:02:56.845Z,101322
2017-12-03T13:05:27.440Z,101323
2017-12-03T13:07:56.555Z,101317
2017-12-03T13:10:25.691Z,101309
2017-12-03T13:12:55.541Z,101315
2017-12-03T13:15:24.737Z,101316
2017-12-03T13:17:53.851Z,101315
2017-12-03T13:20:23.837Z,101317
2017-12-03T13:22:54.525Z,101315
2017-12-03T13:25:24.346Z,101314
2017-12-03T13:27:54.572Z,101313
2017-12-03T13:30:23.770Z,101315
2017-12-03T13:32:53.110Z,101315
2017-12-03T13:35:22.236Z,101313
2017-12-03T13:37:51.358Z,101315
2017-12-03T13:40:20.536Z,101309
2017-12-03T13:42:50.060Z,101314
2017-12-03T13:45:19.205Z,101318
2017-12-03T13:47:48.465Z,101316
2017-12-03T13:50:18.166Z,101317
2017-12-03T13:52:48.264Z,101324
2017-12-03T13:55:18.302Z,101311
2017-12-03T13:57:47.524Z,101325
2017-12-03T14:00:16.703Z,101321
2017-12-03T14:02:45.903Z,101319
2017-12-03T14:05:15.245Z,101323
2017-12-03T14:07:44.480Z,101321
2017-12-03T14:10:14.621Z,101325
2017-12-03T14:12:43.945Z,101328
2017-12-03T14:15:13.130Z,101332
2017-12-03T14:17:42.327Z,101333
2017-12-03T14:20:11.515Z,101334
2017-12-03T14:22:41.095Z,101335
2017-12-03T14:25:10.294Z,101336
2017-12-03T14:27:40.574Z,101337
2017-12-03T14:30:09.716Z,101343
2017-12-03T14:32:38.810Z,101345
2017-12-03T14:35:07.934Z,101347
2017-12-03T14:37:37.039Z,101341
2017-12-03T14:40:06.156Z,101345
2017-12-03T14:42:35.421Z,101349
2017-12-03T14:45:04.540Z,101354
2017-12-03T14:47:33.665Z,101357
2017-12-03T14:50:03.051Z,101359
2017-12-03T14:52:32.904Z,101358
2017-12-03T14:55:01.991Z,101364
2017-12-03T14:57:31.891Z,101367
2017-12-03T15:00:00.996Z,101369
2017-12-03T15:02:30.152Z,101369
2017-12-03T15:04:59.332Z,101365
2017-12-03T15:07:28.424Z,101369
2017-12-03T15:09:57.539Z,101369
2017-12-03T15:12:27.059Z,101369
2017-12-03T15:14:56.230Z,101372
2017-12-03T15:17:26.047Z,101380
2017-12-03T15:19:55.291Z,101382
2017-12-03T15:22:25.354Z,101383
2017-12-03T15:24:54.511Z,101381
2017-12-03T15:27:25.409Z,101387
2017-12-03T15:29:55.774Z,101384
2017-12-03T15:32:24.930Z,101392
2017-12-03T15:34:54.223Z,101390
2017-12-03T15:37:23.718Z,101391
2017-12-03T15:39:52.915Z,101392
2017-12-03T15:42:23.663Z,101386
2017-12-03T15:44:56.252Z,101390
2017-12-03T15:47:25.739Z,101378
2017-12-03T15:49:54.865Z,101387
2017-12-03T15:52:24.820Z,101387
2017-12-03T15:54:54.132Z,101385
2017-12-03T15:57:23.875Z,101391
2017-12-03T15:59:54.015Z,101388
2017-12-03T16:02:23.283Z,101395
2017-12-03T16:04:52.699Z,101396
2017-12-03T16:07:22.978Z,101397
2017-12-03T16:09:53.936Z,101399
2017-12-03T16:12:24.007Z,101403
2017-12-03T16:14:54.765Z,101404
2017-12-03T16:17:25.179Z,101402
2017-12-03T16:19:55.976Z,101406
2017-12-03T16:22:25.597Z,101412
2017-12-03T16:24:57.245Z,101405
2017-12-03T16:27:27.089Z,101412
2017-12-03T16:29:58.399Z,101415
2017-12-03T16:32:27.596Z,101428
2017-12-03T16:34:56.775Z,101445
2017-12-03T16:37:26.776Z,101447
2017-12-03T16:39:56.946Z,101435
2017-12-03T16:42:26.582Z,101428
2017-12-03T16:44:58.766Z,101429
2017-12-03T16:47:27.927Z,101427
2017-12-03T16:50:00.343Z,101427
2017-12-03T16:52:29.919Z,101436
2017-12-03T16:55:01.981Z,101438
2017-12-03T16:57:32.097Z,101442
2017-12-03T17:00:01.433Z,101446
2017-12-03T17:02:30.977Z,101448
2017-12-03T17:05:00.387Z,101449
2017-12-03T17:07:29.589Z,101452
2017-12-03T17:09:58.905Z,101449
2017-12-03T17:12:28.280Z,101444
2017-12-03T17:14:58.496Z,101446
2017-12-03T17:17:28.377Z,101447
2017-12-03T17:19:59.795Z,101446
2017-12-03T17:22:29.326Z,101449
2017-12-03T17:24:58.614Z,101450
2017-12-03T17:27:28.624Z,101451
2017-12-03T17:30:01.600Z,101454
2017-12-03T17:32:31.034Z,101454
2017-12-03T17:35:01.496Z,101459
2017-12-03T17:37:31.977Z,101461
2017-12-03T17:40:01.451Z,101462
2017-12-03T17:42:31.753Z,101455
2017-12-03T17:45:01.283Z,101452
2017-12-03T17:47:32.751Z,101455
2017-12-03T17:50:01.910Z,101459
2017-12-03T17:52:32.668Z,101456
2017-12-03T17:55:02.869Z,101459
2017-12-03T17:57:32.641Z,101460
2017-12-03T18:00:01.746Z,101467
2017-12-03T18:02:32.027Z,101470
2017-12-03T18:05:01.706Z,101475
2017-12-03T18:07:31.797Z,101474
2017-12-03T18:10:02.429Z,101476
2017-12-03T18:12:31.751Z,101467
2017-12-03T18:15:01.293Z,101467
2017-12-03T18:17:33.223Z,101467
2017-12-03T18:20:04.062Z,101467
2017-12-03T18:22:33.234Z,101467
2017-12-03T18:25:03.380Z,101470
2017-12-03T18:27:33.334Z,101471
2017-12-03T18:30:02.539Z,101465
2017-12-03T18:32:32.588Z,101464
2017-12-03T18:35:01.748Z,101462
2017-12-03T18:37:30.881Z,101460
2017-12-03T18:40:00.115Z,101457
2017-12-03T18:42:29.266Z,101466
2017-12-03T18:44:58.435Z,101464
2017-12-03T18:47:37.793Z,101466
2017-12-03T18:50:09.479Z,101468
2017-12-03T18:52:38.931Z,101469
2017-12-03T18:55:08.861Z,101473
2017-12-03T18:57:38.911Z,101471
2017-12-03T19:00:08.433Z,101476
2017-12-03T19:02:39.482Z,101470
2017-12-03T19:05:08.701Z,101471
2017-12-03T19:07:37.919Z,101464
2017-12-03T19:10:07.034Z,101461
2017-12-03T19:12:36.202Z,101454
2017-12-03T19:15:06.923Z,101460
2017-12-03T19:17:38.262Z,101460
2017-12-03T19:20:09.216Z,101455
2017-12-03T19:22:40.173Z,101455
2017-12-03T19:25:09.333Z,101454
2017-12-03T19:27:38.978Z,101455
2017-12-03T19:30:08.119Z,101448
2017-12-03T19:32:38.389Z,101451
2017-12-03T19:35:08.418Z,101458
2017-12-03T19:37:37.551Z,101460
2017-12-03T19:40:07.519Z,101461
2017-12-03T19:42:36.675Z,101455
2017-12-03T19:45:06.811Z,101458
2017-12-03T19:47:36.880Z,101456
2017-12-03T19:50:06.245Z,101463
2017-12-03T19:52:35.511Z,101461
2017-12-03T19:55:05.148Z,101458
2017-12-03T19:57:34.281Z,101465
2017-12-03T20:00:03.639Z,101465
2017-12-03T20:02:32.874Z,101466
2017-12-03T20:05:04.828Z,101476
2017-12-03T20:07:34.250Z,101471
2017-12-03T20:10:03.514Z,101468
2017-12-03T20:12:32.725Z,101468
2017-12-03T20:15:02.214Z,101465
2017-12-03T20:17:31.452Z,101464
2017-12-03T20:20:01.352Z,101459
2017-12-03T20:22:31.987Z,101465
2017-12-03T20:25:01.338Z,101458
2017-12-03T20:27:31.284Z,101458
2017-12-03T20:30:00.602Z,101461
2017-12-03T20:32:30.573Z,101461
2017-12-03T20:35:01.011Z,101465
2017-12-03T20:37:31.179Z,101461
2017-12-03T20:40:01.521Z,101460
2017-12-03T20:42:30.741Z,101456
2017-12-03T20:44:59.989Z,101461
2017-12-03T20:47:29.066Z,101465
2017-12-03T20:49:59.224Z,101456
2017-12-03T20:52:29.273Z,101456
2017-12-03T20:54:58.472Z,101451
2017-12-03T20:57:29.247Z,101446
2017-12-03T21:00:00.022Z,101445
2017-12-03T21:02:29.324Z,101438
2017-12-03T21:04:58.553Z,101442
2017-12-03T21:07:28.043Z,101439
2017-12-03T21:09:57.543Z,101448
2017-12-03T21:12:28.086Z,101450
2017-12-03T21:14:57.976Z,101453
2017-12-03T21:17:27.941Z,101447
2017-12-03T21:19:57.143Z,101450
2017-12-03T21:22:28.962Z,101446
2017-12-03T21:24:58.557Z,101441
2017-12-03T21:27:27.667Z,101443
2017-12-03T21:29:57.184Z,101439
2017-12-03T21:32:27.063Z,101445
2017-12-03T21:34:56.454Z,101441
2017-12-03T21:37:30.183Z,101439
2017-12-03T21:39:59.420Z,101443
2017-12-03T21:42:30.080Z,101442
2017-12-03T21:44:59.500Z,101436
2017-12-03T21:47:28.727Z,101445
2017-12-03T21:49:58.231Z,101443
2017-12-03T21:52:28.558Z,101448
2017-12-03T21:54:59.518Z,101450
2017-12-03T21:57:29.449Z,101448
2017-12-03T22:00:00.013Z,101445
2017-12-03T22:02:30.076Z,101452
2017-12-03T22:04:59.690Z,101451
2017-12-03T22:07:29.637Z,101445
2017-12-03T22:10:00.123Z,101453
2017-12-03T22:12:29.321Z,101462
2017-12-03T22:14:58.811Z,101465
2017-12-03T22:17:29.749Z,101471
2017-12-03T22:19:59.223Z,101472
2017-12-03T22:22:29.641Z,101472
2017-12-03T22:24:59.040Z,101476
2017-12-03T22:27:29.495Z,101474
2017-12-03T22:30:00.820Z,101472
2017-12-03T22:32:30.316Z,101472
2017-12-03T22:35:00.546Z,101485
2017-12-03T22:37:32.901Z,101488
2017-12-03T22:40:02.172Z,101492
2017-12-03T22:42:32.274Z,101494
2017-12-03T22:45:01.400Z,101496
2017-12-03T22:47:30.526Z,101488
2017-12-03T22:50:07.853Z,101484
2017-12-03T22:52:39.252Z,101479
2017-12-03T22:55:09.330Z,101491
2017-12-03T22:57:39.416Z,101488
2017-12-03T23:00:10.336Z,101502
2017-12-03T23:02:39.682Z,101506
2017-12-03T23:05:08.834Z,101504
2017-12-03T23:07:38.464Z,101509
2017-12-03T23:10:07.882Z,101505
2017-12-03T23:12:37.050Z,101510
2017-12-03T23:15:06.194Z,101510
2017-12-03T23:17:36.915Z,101512
2017-12-03T23:20:06.924Z,101515
2017-12-03T23:22:36.917Z,101516
2017-12-03T23:25:06.184Z,101511
2017-12-03T23:27:35.312Z,101512
2017-12-03T23:30:06.320Z,101516
2017-12-03T23:32:36.280Z,101518
2017-12-03T23:35:05.383Z,101519
2017-12-03T23:37:34.985Z,101524
2017-12-03T23:40:04.145Z,101523
2017-12-03T23:42:33.265Z,101526
2017-12-03T23:45:03.992Z,101513
2017-12-03T23:47:33.082Z,101505
2017-12-03T23:50:02.201Z,101504
2017-12-03T23:52:31.382Z,101494
2017-12-03T23:55:00.530Z,101493
2017-12-03T23:57:30.446Z,101492
